Time;durP1;ratioP1;P1;durP2;ratioP2;P2;SDS_P1;SDS_P2;PMS_P1;PMS_P2;Temp;Humidity;BMP_temperature;BMP_pressure;BME280_temperature;BME280_humidity;BME280_pressure;Samples;Min_cycle;Max_cycle;Signal;HPM_P1;HPM_P2
2024/03/30 00:01:42;;;;;;;2.77;1.53;;;;;;;;;;6250304;28;20044;-78
2024/03/30 00:04:42;;;;;;;1.70;1.30;;;;;;;;;;6248206;28;20017;-78
2024/03/30 00:07:44;;;;;;;2.47;1.23;;;;;;;;;;6240744;28;20029;-76
2024/03/30 00:10:44;;;;;;;1.70;1.10;;;;;;;;;;6238882;28;20029;-77
2024/03/30 00:13:45;;;;;;;1.60;1.10;;;;;;;;;;6240541;28;20068;-76
2024/03/30 00:16:45;;;;;;;2.77;1.10;;;;;;;;;;6226082;28;20030;-76
2024/03/30 00:19:45;;;;;;;1.57;1.20;;;;;;;;;;6231510;28;20025;-76
2024/03/30 00:22:45;;;;;;;2.43;1.17;;;;;;;;;;6238065;28;20021;-76
2024/03/30 00:25:53;;;;;;;3.53;1.20;;;;;;;;;;6245212;28;20375;-76
2024/03/30 00:28:53;;;;;;;1.40;1.05;;;;;;;;;;6247503;28;20032;-77
2024/03/30 00:31:53;;;;;;;2.87;1.30;;;;;;;;;;6249881;28;20382;-77
2024/03/30 00:34:53;;;;;;;1.47;1.37;;;;;;;;;;6247441;28;20494;-77
2024/03/30 00:37:54;;;;;;;4.30;1.20;;;;;;;;;;6248844;28;20073;-76
2024/03/30 00:40:54;;;;;;;1.60;1.03;;;;;;;;;;6249236;28;20064;-77
2024/03/30 00:43:54;;;;;;;2.17;1.13;;;;;;;;;;6248120;28;20347;-77
2024/03/30 00:46:55;;;;;;;2.53;1.30;;;;;;;;;;6249390;28;20385;-77
2024/03/30 00:49:55;;;;;;;2.03;1.13;;;;;;;;;;6247210;28;20426;-77
2024/03/30 00:52:55;;;;;;;2.17;1.00;;;;;;;;;;6237943;28;20485;-76
2024/03/30 00:55:56;;;;;;;1.50;1.00;;;;;;;;;;6224319;28;20079;-77
2024/03/30 00:58:56;;;;;;;1.67;1.10;;;;;;;;;;6246310;28;20478;-76
2024/03/30 01:01:57;;;;;;;2.07;1.07;;;;;;;;;;6248818;28;20056;-77
2024/03/30 01:04:57;;;;;;;2.17;1.33;;;;;;;;;;6247297;28;20259;-77
2024/03/30 01:07:57;;;;;;;3.17;1.20;;;;;;;;;;6247955;28;20421;-77
2024/03/30 01:10:58;;;;;;;2.97;1.53;;;;;;;;;;6248555;28;20477;-77
2024/03/30 01:13:58;;;;;;;2.35;1.13;;;;;;;;;;6246913;28;20113;-77
2024/03/30 01:16:58;;;;;;;2.37;0.90;;;;;;;;;;6248130;28;20429;-78
2024/03/30 01:19:59;;;;;;;2.67;1.30;;;;;;;;;;6247211;28;20482;-78
2024/03/30 01:23:00;;;;;;;1.83;0.90;;;;;;;;;;6248147;28;20021;-78
2024/03/30 01:26:00;;;;;;;;;;;;;;;;;;6248079;28;20036;-78
2024/03/30 01:29:02;;;;;;;1.45;0.90;;;;;;;;;;6248320;28;19905;-78
2024/03/30 01:32:02;;;;;;;2.17;1.02;;;;;;;;;;6246969;28;20390;-78
2024/03/30 01:35:03;;;;;;;2.57;1.17;;;;;;;;;;6246926;28;20045;-78
2024/03/30 01:38:04;;;;;;;2.72;1.20;;;;;;;;;;6247885;28;20061;-78
2024/03/30 01:41:04;;;;;;;1.40;0.90;;;;;;;;;;6248103;28;20484;-78
2024/03/30 01:44:04;;;;;;;1.50;0.80;;;;;;;;;;6246448;28;20449;-78
2024/03/30 01:47:05;;;;;;;3.63;0.87;;;;;;;;;;6246122;28;20025;-78
2024/03/30 01:50:06;;;;;;;2.67;1.33;;;;;;;;;;6228989;28;20363;-78
2024/03/30 01:53:08;;;;;;;2.38;0.90;;;;;;;;;;6229973;28;20097;-78
2024/03/30 01:56:08;;;;;;;;;;;;;;;;;;6248183;28;20033;-78
2024/03/30 01:59:08;;;;;;;1.05;0.60;;;;;;;;;;6247449;28;19959;-78
2024/03/30 02:02:09;;;;;;;1.87;1.03;;;;;;;;;;6247058;28;20029;-78
2024/03/30 02:05:09;;;;;;;;;;;;;;;;;;6246343;28;20032;-78
2024/03/30 02:08:10;;;;;;;2.38;0.75;;;;;;;;;;6247287;28;19905;-78
2024/03/30 02:11:12;;;;;;;4.22;0.88;;;;;;;;;;6252014;28;20076;-78
2024/03/30 02:14:13;;;;;;;1.80;1.10;;;;;;;;;;6252637;28;20025;-77
2024/03/30 02:17:13;;;;;;;5.90;0.83;;;;;;;;;;6251997;28;20465;-78
2024/03/30 02:20:13;;;;;;;3.03;1.20;;;;;;;;;;6250235;28;20087;-78
2024/03/30 02:23:16;;;;;;;2.73;1.13;;;;;;;;;;6251887;28;20052;-78
2024/03/30 02:26:16;;;;;;;5.35;1.00;;;;;;;;;;6252623;28;20382;-78
2024/03/30 02:29:18;;;;;;;1.90;0.77;;;;;;;;;;6252299;28;20025;-78
2024/03/30 02:32:18;;;;;;;2.20;0.77;;;;;;;;;;6251421;28;20033;-78
2024/03/30 02:35:18;;;;;;;4.87;0.90;;;;;;;;;;6251836;28;20064;-78
2024/03/30 02:38:18;;;;;;;2.27;1.00;;;;;;;;;;6249126;28;20037;-77
2024/03/30 02:41:19;;;;;;;2.23;0.90;;;;;;;;;;6252392;28;20033;-76
2024/03/30 02:44:19;;;;;;;2.83;0.90;;;;;;;;;;6251720;28;20013;-77
2024/03/30 02:47:19;;;;;;;2.27;1.10;;;;;;;;;;6250774;28;20377;-77
2024/03/30 02:50:19;;;;;;;1.97;1.00;;;;;;;;;;6251592;28;20425;-76
2024/03/30 02:53:20;;;;;;;1.40;0.87;;;;;;;;;;6249962;28;20430;-77
2024/03/30 02:56:21;;;;;;;1.67;1.00;;;;;;;;;;6252075;28;20030;-77
2024/03/30 02:59:21;;;;;;;4.47;1.23;;;;;;;;;;6251520;28;20036;-76
2024/03/30 03:02:22;;;;;;;2.33;1.10;;;;;;;;;;6250471;28;20037;-76
2024/03/30 03:05:22;;;;;;;3.63;1.00;;;;;;;;;;6251287;28;20021;-76
2024/03/30 03:08:26;;;;;;;4.47;1.13;;;;;;;;;;6244552;28;20034;-77
2024/03/30 03:11:26;;;;;;;2.45;0.88;;;;;;;;;;6250800;28;20041;-77
2024/03/30 03:14:28;;;;;;;2.97;1.00;;;;;;;;;;6251661;28;20096;-76
2024/03/30 03:17:28;;;;;;;5.25;1.20;;;;;;;;;;6246380;28;20137;-77
2024/03/30 03:20:29;;;;;;;3.67;0.97;;;;;;;;;;6225349;28;20053;-77
2024/03/30 03:23:30;;;;;;;3.50;0.90;;;;;;;;;;6236881;28;20076;-77
2024/03/30 03:26:31;;;;;;;3.65;0.95;;;;;;;;;;6250653;28;20060;-76
2024/03/30 03:29:32;;;;;;;3.13;0.80;;;;;;;;;;6251043;28;20030;-77
2024/03/30 03:32:32;;;;;;;2.05;1.10;;;;;;;;;;6249790;28;20020;-76
2024/03/30 03:35:33;;;;;;;2.23;0.93;;;;;;;;;;6250328;28;20380;-76
2024/03/30 03:38:33;;;;;;;2.30;1.00;;;;;;;;;;6246973;28;20040;-77
2024/03/30 03:41:34;;;;;;;3.33;1.20;;;;;;;;;;6250908;28;20048;-77
2024/03/30 03:44:34;;;;;;;;;;;;;;;;;;6251014;28;20017;-77
2024/03/30 03:47:35;;;;;;;1.70;0.80;;;;;;;;;;6249283;28;19948;-76
2024/03/30 03:50:35;;;;;;;2.93;1.00;;;;;;;;;;6249300;28;20549;-77
2024/03/30 03:53:35;;;;;;;2.50;0.80;;;;;;;;;;6249749;28;20075;-77
2024/03/30 03:56:35;;;;;;;2.13;1.00;;;;;;;;;;6249518;28;20116;-77
2024/03/30 03:59:36;;;;;;;2.57;0.90;;;;;;;;;;6250126;28;20048;-76
2024/03/30 04:02:37;;;;;;;3.20;1.10;;;;;;;;;;6247353;28;20389;-76
2024/03/30 04:05:37;;;;;;;2.63;1.13;;;;;;;;;;6243333;28;20028;-76
2024/03/30 04:08:37;;;;;;;2.63;1.70;;;;;;;;;;6249133;28;20477;-77
2024/03/30 04:11:38;;;;;;;2.43;1.20;;;;;;;;;;6250385;28;20470;-76
2024/03/30 04:14:38;;;;;;;3.00;1.20;;;;;;;;;;6249828;28;20029;-76
2024/03/30 04:17:38;;;;;;;3.43;1.10;;;;;;;;;;6248044;28;20037;-76
2024/03/30 04:20:38;;;;;;;2.30;1.27;;;;;;;;;;6247190;28;20025;-76
2024/03/30 04:23:39;;;;;;;4.17;1.17;;;;;;;;;;6248834;28;20025;-77
2024/03/30 04:26:39;;;;;;;4.07;1.17;;;;;;;;;;6249623;28;20030;-76
2024/03/30 04:29:39;;;;;;;2.60;1.20;;;;;;;;;;6249584;28;20033;-76
2024/03/30 04:32:39;;;;;;;6.33;1.37;;;;;;;;;;6248213;28;20029;-76
2024/03/30 04:35:40;;;;;;;2.30;1.30;;;;;;;;;;6247119;28;20065;-77
2024/03/30 04:38:40;;;;;;;3.07;1.37;;;;;;;;;;6223951;28;20088;-77
2024/03/30 04:41:41;;;;;;;5.55;1.15;;;;;;;;;;6229988;28;20079;-77
2024/03/30 04:44:41;;;;;;;4.90;1.17;;;;;;;;;;6249192;28;20048;-76
2024/03/30 04:47:41;;;;;;;4.93;1.27;;;;;;;;;;6248338;28;20017;-76
2024/03/30 04:50:41;;;;;;;5.80;1.30;;;;;;;;;;6247471;28;20167;-76
2024/03/30 04:53:41;;;;;;;2.93;1.10;;;;;;;;;;6248127;28;20104;-77
2024/03/30 04:56:42;;;;;;;4.22;1.40;;;;;;;;;;6249491;28;20057;-77
2024/03/30 04:59:42;;;;;;;2.87;1.23;;;;;;;;;;6248727;28;20030;-77
2024/03/30 05:02:43;;;;;;;5.93;1.40;;;;;;;;;;6246161;28;20026;-76
2024/03/30 05:05:44;;;;;;;4.73;1.70;;;;;;;;;;6248490;28;20025;-76
2024/03/30 05:08:44;;;;;;;4.88;1.30;;;;;;;;;;6246532;28;20030;-77
2024/03/30 05:11:44;;;;;;;4.17;1.33;;;;;;;;;;6247789;28;20033;-76
2024/03/30 05:14:44;;;;;;;3.57;1.13;;;;;;;;;;6248585;28;20040;-76
2024/03/30 05:17:45;;;;;;;5.03;1.43;;;;;;;;;;6247250;28;20033;-77
2024/03/30 05:20:53;;;;;;;4.73;1.33;;;;;;;;;;6248338;28;20026;-76
2024/03/30 05:23:54;;;;;;;3.72;1.50;;;;;;;;;;6245948;28;20029;-77
2024/03/30 05:26:54;;;;;;;2.50;1.17;;;;;;;;;;6248718;28;20490;-78
2024/03/30 05:29:57;;;;;;;3.40;1.13;;;;;;;;;;6248275;28;20481;-76
2024/03/30 05:32:58;;;;;;;3.03;1.20;;;;;;;;;;6246472;28;20111;-77
2024/03/30 05:35:58;;;;;;;5.77;1.20;;;;;;;;;;6248227;28;20056;-77
2024/03/30 05:38:58;;;;;;;3.43;1.07;;;;;;;;;;6245735;28;20492;-76
2024/03/30 05:41:58;;;;;;;4.77;1.30;;;;;;;;;;6246690;28;20044;-77
2024/03/30 05:44:58;;;;;;;4.90;1.07;;;;;;;;;;6247745;28;20462;-77
2024/03/30 05:47:59;;;;;;;6.90;1.23;;;;;;;;;;6246481;28;20509;-77
2024/03/30 05:51:01;;;;;;;5.80;1.23;;;;;;;;;;6247452;28;20508;-77
2024/03/30 05:54:02;;;;;;;4.22;1.45;;;;;;;;;;6247065;28;20557;-76
2024/03/30 05:57:02;;;;;;;5.67;1.33;;;;;;;;;;6238609;28;20037;-77
2024/03/30 06:00:02;;;;;;;4.80;1.47;;;;;;;;;;6261942;28;20482;-76
2024/03/30 06:03:03;;;;;;;6.47;1.60;;;;;;;;;;6258372;28;20033;-76
2024/03/30 06:06:04;;;;;;;5.28;1.40;;;;;;;;;;6246310;28;20022;-76
2024/03/30 06:09:04;;;;;;;4.70;1.47;;;;;;;;;;6246969;28;20083;-76
2024/03/30 06:12:04;;;;;;;5.60;1.40;;;;;;;;;;6248619;28;20057;-77
2024/03/30 06:15:05;;;;;;;8.90;1.77;;;;;;;;;;6247767;28;20119;-77
2024/03/30 06:18:06;;;;;;;4.00;1.40;;;;;;;;;;6246237;28;20478;-77
2024/03/30 06:21:07;;;;;;;4.57;1.25;;;;;;;;;;6244406;28;20486;-77
2024/03/30 06:24:07;;;;;;;6.77;1.53;;;;;;;;;;6246716;28;20039;-74
2024/03/30 06:27:07;;;;;;;3.80;1.20;;;;;;;;;;6247539;28;20029;-74
2024/03/30 06:30:08;;;;;;;5.25;1.98;;;;;;;;;;6231071;28;20189;-75
2024/03/30 06:33:10;;;;;;;6.17;1.27;;;;;;;;;;6236988;28;20044;-74
2024/03/30 06:36:10;;;;;;;4.90;1.60;;;;;;;;;;6250398;28;20102;-74
2024/03/30 06:39:10;;;;;;;4.73;1.70;;;;;;;;;;6246200;28;20037;-74
2024/03/30 06:45:29;;;;;;;6.80;1.50;;;;;;;;;;6254466;28;20025;-74
2024/03/30 06:48:29;;;;;;;5.80;1.77;;;;;;;;;;6265713;28;20020;-77
2024/03/30 06:51:29;;;;;;;6.93;1.60;;;;;;;;;;6247148;28;20023;-76
2024/03/30 06:54:30;;;;;;;7.37;2.00;;;;;;;;;;6244417;28;20084;-80
2024/03/30 06:57:30;;;;;;;7.90;2.07;;;;;;;;;;6259430;28;20028;-81
2024/03/30 07:00:30;;;;;;;10.83;2.10;;;;;;;;;;6275492;28;20527;-80
2024/03/30 07:03:31;;;;;;;8.37;1.90;;;;;;;;;;6275109;28;20051;-81
2024/03/30 07:06:31;;;;;;;8.10;2.17;;;;;;;;;;6254482;28;20505;-80
2024/03/30 07:09:31;;;;;;;8.63;1.83;;;;;;;;;;6254326;28;20032;-81
2024/03/30 07:12:31;;;;;;;13.00;1.83;;;;;;;;;;6246724;28;20029;-78
2024/03/30 07:15:32;;;;;;;11.10;2.50;;;;;;;;;;6275998;28;20018;-79
2024/03/30 07:18:32;;;;;;;9.07;1.97;;;;;;;;;;6248238;28;20087;-77
2024/03/30 07:21:32;;;;;;;10.43;1.93;;;;;;;;;;6244669;28;20494;-77
2024/03/30 07:24:33;;;;;;;7.73;1.87;;;;;;;;;;6247484;28;20532;-78
2024/03/30 07:27:33;;;;;;;9.70;1.87;;;;;;;;;;6254769;28;20470;-77
2024/03/30 07:30:37;;;;;;;14.27;1.90;;;;;;;;;;6254163;28;20307;-78
2024/03/30 07:33:37;;;;;;;7.18;1.98;;;;;;;;;;6240185;28;20044;-78
2024/03/30 07:36:38;;;;;;;4.73;1.50;;;;;;;;;;6240857;28;20081;-78
2024/03/30 07:39:39;;;;;;;7.67;2.03;;;;;;;;;;6262346;28;20072;-78
2024/03/30 07:42:39;;;;;;;11.23;2.10;;;;;;;;;;6268714;28;20029;-77
2024/03/30 07:45:40;;;;;;;7.27;1.50;;;;;;;;;;6272888;28;20086;-76
2024/03/30 07:48:40;;;;;;;7.97;2.27;;;;;;;;;;6247788;28;20025;-78
2024/03/30 07:51:40;;;;;;;6.73;1.80;;;;;;;;;;6247524;28;20026;-79
2024/03/30 07:54:40;;;;;;;7.60;2.03;;;;;;;;;;6247493;28;20029;-78
2024/03/30 07:57:41;;;;;;;6.40;1.70;;;;;;;;;;6250183;28;20026;-76
2024/03/30 08:00:41;;;;;;;8.20;1.50;;;;;;;;;;6249839;28;20093;-77
2024/03/30 08:03:41;;;;;;;7.07;1.63;;;;;;;;;;6237835;28;20492;-78
2024/03/30 08:06:42;;;;;;;5.80;1.60;;;;;;;;;;6236908;28;20027;-78
2024/03/30 08:09:43;;;;;;;;;;;;;;;;;;6249266;28;20033;-77
2024/03/30 08:12:43;;;;;;;9.00;1.70;;;;;;;;;;6263662;28;20296;-77
2024/03/30 08:15:44;;;;;;;7.20;1.40;;;;;;;;;;6260090;28;20029;-76
2024/03/30 08:18:44;;;;;;;9.65;1.88;;;;;;;;;;6251696;28;20037;-76
2024/03/30 08:21:46;;;;;;;7.03;1.77;;;;;;;;;;6246745;28;20026;-76
2024/03/30 08:24:46;;;;;;;10.38;1.60;;;;;;;;;;6249453;28;20033;-77
2024/03/30 08:27:46;;;;;;;8.20;1.47;;;;;;;;;;6243569;28;20039;-77
2024/03/30 08:30:49;;;;;;;6.53;1.50;;;;;;;;;;6249863;28;20037;-77
2024/03/30 08:33:52;;;;;;;8.88;1.40;;;;;;;;;;6250649;28;20488;-78
2024/03/30 08:36:52;;;;;;;8.50;1.70;;;;;;;;;;6246487;28;20080;-75
2024/03/30 08:39:53;;;;;;;12.03;1.73;;;;;;;;;;6247572;28;20032;-75
2024/03/30 08:42:53;;;;;;;7.70;1.80;;;;;;;;;;6247406;28;20091;-75
2024/03/30 08:45:54;;;;;;;11.90;1.70;;;;;;;;;;6247133;28;20109;-75
2024/03/30 08:49:01;;;;;;;10.15;1.48;;;;;;;;;;6246300;28;20030;-75
2024/03/30 08:52:02;;;;;;;14.48;2.47;;;;;;;;;;6247219;28;20488;-76
2024/03/30 08:55:02;;;;;;;9.90;2.47;;;;;;;;;;6240612;28;20026;-75
2024/03/30 08:58:02;;;;;;;10.70;1.90;;;;;;;;;;6224613;28;20022;-75
2024/03/30 09:01:03;;;;;;;7.63;2.28;;;;;;;;;;6224286;28;20475;-75
2024/03/30 09:04:03;;;;;;;14.97;2.43;;;;;;;;;;6224161;28;20486;-75
2024/03/30 09:07:03;;;;;;;7.97;1.95;;;;;;;;;;6245684;28;20549;-76
2024/03/30 09:10:04;;;;;;;8.27;2.07;;;;;;;;;;6248518;28;20428;-75
2024/03/30 09:13:04;;;;;;;10.60;2.40;;;;;;;;;;6249249;28;20013;-75
2024/03/30 09:16:04;;;;;;;9.30;1.93;;;;;;;;;;6247427;28;20032;-76
2024/03/30 09:19:05;;;;;;;9.30;1.90;;;;;;;;;;6246665;28;20063;-75
2024/03/30 09:22:05;;;;;;;10.23;2.13;;;;;;;;;;6247682;28;20103;-75
2024/03/30 09:25:12;;;;;;;7.63;2.10;;;;;;;;;;6247784;28;20049;-75
2024/03/30 09:28:12;;;;;;;12.90;2.47;;;;;;;;;;6228367;28;20102;-75
2024/03/30 09:31:12;;;;;;;8.93;2.43;;;;;;;;;;6223502;28;20067;-75
2024/03/30 09:34:12;;;;;;;11.33;1.70;;;;;;;;;;6243856;28;20486;-76
2024/03/30 09:37:14;;;;;;;16.70;2.70;;;;;;;;;;6247536;28;20591;-75
2024/03/30 09:40:16;;;;;;;9.07;2.08;;;;;;;;;;6242549;28;20042;-75
2024/03/30 09:43:17;;;;;;;11.67;2.87;;;;;;;;;;6248341;28;20387;-75
2024/03/30 09:46:17;;;;;;;10.15;2.58;;;;;;;;;;6247976;28;20018;-75
2024/03/30 09:49:19;;;;;;;12.73;2.75;;;;;;;;;;6245379;28;20481;-75
2024/03/30 09:52:22;;;;;;;18.10;2.80;;;;;;;;;;6246085;28;20091;-76
2024/03/30 09:55:25;;;;;;;8.63;2.28;;;;;;;;;;6245514;28;20161;-75
2024/03/30 09:58:25;;;;;;;9.40;2.20;;;;;;;;;;6247879;28;20155;-75
2024/03/30 10:01:26;;;;;;;12.10;2.00;;;;;;;;;;6248328;28;20021;-76
2024/03/30 10:04:26;;;;;;;;;;;;;;;;;;6246138;28;20040;-75
2024/03/30 10:07:34;;;;;;;9.70;1.63;;;;;;;;;;6244681;28;19916;-75
2024/03/30 10:10:34;;;;;;;10.63;1.90;;;;;;;;;;6247663;28;20040;-75
2024/03/30 10:13:36;;;;;;;12.37;2.07;;;;;;;;;;6239904;28;20014;-75
2024/03/30 10:16:37;;;;;;;11.45;2.08;;;;;;;;;;6221178;28;20300;-75
2024/03/30 10:19:37;;;;;;;7.70;1.80;;;;;;;;;;6230636;28;20391;-75
2024/03/30 10:22:38;;;;;;;;;;;;;;;;;;6247800;28;20021;-75
2024/03/30 10:25:38;;;;;;;7.30;1.88;;;;;;;;;;6244845;28;19917;-75
2024/03/30 10:28:38;;;;;;;;;;;;;;;;;;6246853;28;20029;-76
2024/03/30 10:31:39;;;;;;;5.45;1.15;;;;;;;;;;6252061;28;20435;-75
2024/03/30 10:34:40;;;;;;;9.82;1.58;;;;;;;;;;6249893;28;20068;-75
2024/03/30 10:37:40;;;;;;;10.40;1.70;;;;;;;;;;6251844;28;20034;-76
2024/03/30 10:40:42;;;;;;;;;;;;;;;;;;6247914;28;20033;-75
2024/03/30 10:43:42;;;;;;;6.25;1.45;;;;;;;;;;6227636;28;19917;-75
2024/03/30 10:46:42;;;;;;;;;;;;;;;;;;6248452;28;20535;-76
2024/03/30 10:49:42;;;;;;;5.47;1.20;;;;;;;;;;6249122;28;19913;-75
2024/03/30 10:52:42;;;;;;;;;;;;;;;;;;6251754;28;20463;-75
2024/03/30 10:55:43;;;;;;;6.90;1.42;;;;;;;;;;6251869;28;19958;-75
2024/03/30 10:58:43;;;;;;;;;;;;;;;;;;6251856;28;20098;-76
2024/03/30 11:01:52;;;;;;;5.95;1.13;;;;;;;;;;6251761;28;20423;-75
2024/03/30 11:04:53;;;;;;;13.40;1.83;;;;;;;;;;6248080;28;20108;-75
2024/03/30 11:07:53;;;;;;;;;;;;;;;;;;6251673;28;20454;-75
2024/03/30 11:10:54;;;;;;;9.35;1.90;;;;;;;;;;6250861;28;20319;-75
2024/03/30 11:13:54;;;;;;;;;;;;;;;;;;6243818;28;20075;-75
2024/03/30 11:16:56;;;;;;;8.50;1.48;;;;;;;;;;6251588;28;19916;-75
2024/03/30 11:20:06;;;;;;;11.98;2.22;;;;;;;;;;6249430;28;20422;-75
2024/03/30 11:23:25;;;;;;;11.63;2.00;;;;;;;;;;6240618;28;20017;-75
2024/03/30 11:26:26;;;;;;;6.72;1.70;;;;;;;;;;6245353;28;20041;-75
2024/03/30 11:29:41;;;;;;;12.13;1.70;;;;;;;;;;6226850;28;20032;-76
2024/03/30 11:32:45;;;;;;;9.95;1.73;;;;;;;;;;6249048;28;20049;-75
2024/03/30 11:35:51;;;;;;;7.63;1.83;;;;;;;;;;6249809;28;20053;-75
2024/03/30 11:38:53;;;;;;;12.82;2.58;;;;;;;;;;6249533;28;20040;-75
2024/03/30 11:41:55;;;;;;;12.32;2.58;;;;;;;;;;6250230;28;20029;-75
2024/03/30 11:44:56;;;;;;;7.30;2.63;;;;;;;;;;6250821;28;20040;-75
2024/03/30 11:47:56;;;;;;;;;;;;;;;;;;6250273;28;20108;-75
2024/03/30 11:50:56;;;;;;;11.48;1.77;;;;;;;;;;6249228;28;19905;-75
2024/03/30 11:53:56;;;;;;;;;;;;;;;;;;6250825;28;20040;-75
2024/03/30 11:57:13;;;;;;;7.32;1.63;;;;;;;;;;6243481;28;19920;-76
2024/03/30 12:00:18;;;;;;;9.98;1.77;;;;;;;;;;6250610;28;20025;-76
2024/03/30 12:03:18;;;;;;;11.57;2.00;;;;;;;;;;6249213;28;20025;-76
2024/03/30 12:06:18;;;;;;;;;;;;;;;;;;6261905;28;20056;-77
2024/03/30 12:09:19;;;;;;;15.07;1.77;;;;;;;;;;6273573;28;19991;-80
2024/03/30 12:12:20;;;;;;;;;;;;;;;;;;6259056;28;20029;-80
2024/03/30 12:15:20;;;;;;;10.52;1.73;;;;;;;;;;6250365;28;19931;-81
2024/03/30 12:18:21;;;;;;;;;;;;;;;;;;6247644;28;20364;-81
2024/03/30 12:21:21;;;;;;;11.33;1.93;;;;;;;;;;6240055;28;19914;-81
2024/03/30 12:24:21;;;;;;;;;;;;;;;;;;6272133;28;20047;-82
2024/03/30 12:27:21;;;;;;;11.85;1.65;;;;;;;;;;6259035;28;19909;-80
2024/03/30 12:30:21;;;;;;;;;;;;;;;;;;6250432;28;20018;-81
2024/03/30 12:33:23;;;;;;;12.45;1.88;;;;;;;;;;6243400;28;19916;-78
2024/03/30 12:36:23;;;;;;;10.02;1.95;;;;;;;;;;6224915;28;20058;-77
2024/03/30 12:39:23;;;;;;;;;;;;;;;;;;6245705;28;20402;-77
2024/03/30 12:42:24;;;;;;;9.38;1.80;;;;;;;;;;6247636;28;19924;-77
2024/03/30 12:45:25;;;;;;;20.25;2.22;;;;;;;;;;6249165;28;20100;-77
2024/03/30 12:48:25;;;;;;;;;;;;;;;;;;6247222;28;20488;-77
2024/03/30 12:51:25;;;;;;;13.80;2.03;;;;;;;;;;6256039;28;20285;-77
2024/03/30 12:54:25;;;;;;;;;;;;;;;;;;6255584;28;20028;-77
2024/03/30 12:57:27;;;;;;;16.07;2.47;;;;;;;;;;6231341;28;20388;-78
2024/03/30 13:00:28;;;;;;;11.43;2.35;;;;;;;;;;6251072;28;20470;-78
2024/03/30 13:03:28;;;;;;;;;;;;;;;;;;6247589;28;20029;-78
2024/03/30 13:06:28;;;;;;;10.98;1.90;;;;;;;;;;6247171;28;20353;-80
2024/03/30 13:09:28;;;;;;;12.80;2.40;;;;;;;;;;6249194;28;20406;-75
2024/03/30 13:12:30;;;;;;;14.67;2.30;;;;;;;;;;6255233;28;20036;-75
2024/03/30 13:15:31;;;;;;;14.00;2.42;;;;;;;;;;6226883;28;20241;-74
2024/03/30 13:18:31;;;;;;;17.13;2.20;;;;;;;;;;6245975;28;20079;-75
2024/03/30 13:21:31;;;;;;;15.27;2.40;;;;;;;;;;6246250;28;20433;-75
2024/03/30 13:24:31;;;;;;;12.93;2.17;;;;;;;;;;6247264;28;20353;-75
2024/03/30 13:27:32;;;;;;;15.73;2.37;;;;;;;;;;6243709;28;20021;-74
2024/03/30 13:30:32;;;;;;;13.10;2.17;;;;;;;;;;6246584;28;20280;-75
2024/03/30 13:33:33;;;;;;;15.13;2.43;;;;;;;;;;6248968;28;20354;-75
2024/03/30 13:36:33;;;;;;;13.57;2.60;;;;;;;;;;6247908;28;20683;-75
2024/03/30 13:39:33;;;;;;;11.80;2.15;;;;;;;;;;6242044;28;20026;-75
2024/03/30 13:42:34;;;;;;;15.43;2.47;;;;;;;;;;6243622;28;20175;-75
2024/03/30 13:45:35;;;;;;;13.50;3.10;;;;;;;;;;6260239;28;20025;-75
2024/03/30 13:48:35;;;;;;;11.52;2.33;;;;;;;;;;6247021;28;20275;-76
2024/03/30 13:51:35;;;;;;;11.35;2.00;;;;;;;;;;6264455;28;20385;-75
2024/03/30 13:54:36;;;;;;;13.38;2.38;;;;;;;;;;6255576;28;20033;-75
2024/03/30 13:57:37;;;;;;;11.63;2.33;;;;;;;;;;6248283;28;20429;-74
2024/03/30 14:00:39;;;;;;;13.93;2.72;;;;;;;;;;6255657;28;20040;-74
2024/03/30 14:03:40;;;;;;;17.80;2.67;;;;;;;;;;6254925;28;20035;-75
2024/03/30 14:06:40;;;;;;;15.77;2.33;;;;;;;;;;6262089;28;20029;-75
2024/03/30 14:09:40;;;;;;;15.90;2.63;;;;;;;;;;6277043;28;20321;-75
2024/03/30 14:12:40;;;;;;;10.40;1.83;;;;;;;;;;6253831;28;20322;-75
2024/03/30 14:15:41;;;;;;;18.00;2.53;;;;;;;;;;6252132;28;20275;-75
2024/03/30 14:18:41;;;;;;;18.30;2.80;;;;;;;;;;6260541;28;20280;-75
2024/03/30 14:21:42;;;;;;;13.82;2.53;;;;;;;;;;6252757;28;20260;-75
2024/03/30 14:24:42;;;;;;;16.50;2.00;;;;;;;;;;6251566;28;20036;-75
2024/03/30 14:27:43;;;;;;;21.97;3.03;;;;;;;;;;6242944;28;20025;-75
2024/03/30 14:30:43;;;;;;;19.92;2.60;;;;;;;;;;6252979;28;20260;-75
2024/03/30 14:33:44;;;;;;;19.27;2.72;;;;;;;;;;6250910;28;20516;-75
2024/03/30 14:36:46;;;;;;;17.88;2.15;;;;;;;;;;6252770;28;20045;-75
2024/03/30 14:39:46;;;;;;;11.68;2.15;;;;;;;;;;6251898;28;20036;-75
2024/03/30 14:42:47;;;;;;;10.73;1.97;;;;;;;;;;6252779;28;20446;-75
2024/03/30 14:45:47;;;;;;;17.52;2.22;;;;;;;;;;6248903;28;20276;-75
2024/03/30 14:48:48;;;;;;;14.30;2.45;;;;;;;;;;6251212;28;20021;-75
2024/03/30 14:51:49;;;;;;;14.32;2.70;;;;;;;;;;6254309;28;20090;-76
2024/03/30 14:54:49;;;;;;;15.87;2.20;;;;;;;;;;6250805;28;20063;-75
2024/03/30 14:57:49;;;;;;;11.20;1.92;;;;;;;;;;6251531;28;20768;-75
2024/03/30 15:00:50;;;;;;;10.90;1.80;;;;;;;;;;6250674;28;20033;-76
2024/03/30 15:03:50;;;;;;;10.20;1.98;;;;;;;;;;6254482;28;20275;-75
2024/03/30 15:06:50;;;;;;;14.03;2.20;;;;;;;;;;6250301;28;20028;-75
2024/03/30 15:09:51;;;;;;;10.35;2.22;;;;;;;;;;6263717;28;20278;-75
2024/03/30 15:12:51;;;;;;;13.77;2.67;;;;;;;;;;6272340;28;20033;-75
2024/03/30 15:15:51;;;;;;;12.32;2.38;;;;;;;;;;6250976;28;20264;-75
2024/03/30 15:18:52;;;;;;;12.23;2.40;;;;;;;;;;6249110;28;20430;-76
2024/03/30 15:21:52;;;;;;;14.25;2.55;;;;;;;;;;6259332;28;20037;-77
2024/03/30 15:24:52;;;;;;;12.33;2.57;;;;;;;;;;6247952;28;20370;-76
2024/03/30 15:27:55;;;;;;;16.80;2.33;;;;;;;;;;6249716;28;20318;-79
2024/03/30 15:34:15;;;;;;;11.90;2.10;;;;;;;;;;6247812;28;20025;-79
2024/03/30 15:37:15;;;;;;;15.35;2.38;;;;;;;;;;6250013;28;20047;-79
2024/03/30 15:40:18;;;;;;;14.63;2.15;;;;;;;;;;6250588;28;20029;-79
2024/03/30 15:43:19;;;;;;;13.63;2.47;;;;;;;;;;6250833;28;20083;-78
2024/03/30 15:46:19;;;;;;;13.13;2.35;;;;;;;;;;6249259;28;20041;-79
2024/03/30 15:49:20;;;;;;;16.80;2.47;;;;;;;;;;6249191;28;20125;-79
2024/03/30 15:52:20;;;;;;;15.90;2.05;;;;;;;;;;6248410;28;20462;-77
2024/03/30 15:55:23;;;;;;;12.27;1.83;;;;;;;;;;6252626;28;20021;-77
2024/03/30 15:58:25;;;;;;;13.75;2.08;;;;;;;;;;6252646;28;20300;-78
2024/03/30 16:01:26;;;;;;;15.73;2.40;;;;;;;;;;6250673;28;20018;-79
2024/03/30 16:04:27;;;;;;;10.63;1.85;;;;;;;;;;6248441;28;20454;-78
2024/03/30 16:07:27;;;;;;;10.40;1.73;;;;;;;;;;6248287;28;20058;-79
2024/03/30 16:10:28;;;;;;;16.65;1.83;;;;;;;;;;6249964;28;20036;-78
2024/03/30 16:13:29;;;;;;;13.98;2.05;;;;;;;;;;6249966;28;20451;-78
2024/03/30 16:16:29;;;;;;;13.57;2.15;;;;;;;;;;6249802;28;20052;-79
2024/03/30 16:19:29;;;;;;;10.20;2.33;;;;;;;;;;6246696;28;20034;-78
2024/03/30 16:22:31;;;;;;;14.55;2.03;;;;;;;;;;6249652;28;20267;-79
2024/03/30 16:25:31;;;;;;;12.05;1.70;;;;;;;;;;6243968;28;20022;-78
2024/03/30 16:28:32;;;;;;;7.77;1.33;;;;;;;;;;6248631;28;20413;-78
2024/03/30 16:31:32;;;;;;;9.02;1.58;;;;;;;;;;6251717;28;20733;-78
2024/03/30 16:34:34;;;;;;;10.30;1.73;;;;;;;;;;6263949;28;20144;-78
2024/03/30 16:37:34;;;;;;;7.97;1.70;;;;;;;;;;6260078;28;20288;-81
2024/03/30 16:40:34;;;;;;;6.87;1.70;;;;;;;;;;6241836;28;20666;-78
2024/03/30 16:43:35;;;;;;;8.37;2.00;;;;;;;;;;6238136;28;20783;-78
2024/03/30 16:46:35;;;;;;;9.73;1.70;;;;;;;;;;6252010;28;20036;-78
2024/03/30 16:49:35;;;;;;;8.03;1.57;;;;;;;;;;6247025;28;20485;-77
2024/03/30 16:52:38;;;;;;;6.03;1.40;;;;;;;;;;6248398;28;20713;-77
2024/03/30 16:55:40;;;;;;;11.98;1.80;;;;;;;;;;6248822;28;20244;-77
2024/03/30 16:58:41;;;;;;;6.65;1.50;;;;;;;;;;6259707;28;20405;-76
2024/03/30 17:01:41;;;;;;;5.97;1.27;;;;;;;;;;6255233;28;20028;-81
2024/03/30 17:04:41;;;;;;;5.67;1.43;;;;;;;;;;6248901;28;20458;-81
2024/03/30 17:07:42;;;;;;;13.10;1.67;;;;;;;;;;6233360;28;20315;-82
2024/03/30 17:10:42;;;;;;;9.27;1.60;;;;;;;;;;6235626;28;20545;-85
2024/03/30 17:13:43;;;;;;;7.32;1.70;;;;;;;;;;6240451;28;20028;-84
2024/03/30 17:16:44;;;;;;;9.80;1.33;;;;;;;;;;6224358;28;20045;-84
2024/03/30 17:19:48;;;;;;;7.93;1.83;;;;;;;;;;6245484;28;20529;-84
2024/03/30 17:22:48;;;;;;;7.00;1.23;;;;;;;;;;6265822;28;20028;-83
2024/03/30 17:25:49;;;;;;;6.37;1.03;;;;;;;;;;6273032;28;20075;-81
2024/03/30 17:28:49;;;;;;;8.52;1.10;;;;;;;;;;6264713;28;20275;-82
2024/03/30 17:31:50;;;;;;;8.50;1.25;;;;;;;;;;6239176;28;20500;-82
2024/03/30 17:34:57;;;;;;;4.80;0.95;;;;;;;;;;6262281;28;20142;-78
2024/03/30 17:37:57;;;;;;;9.27;1.60;;;;;;;;;;6251221;28;20393;-77
2024/03/30 17:41:01;;;;;;;6.88;1.50;;;;;;;;;;6247346;28;20030;-77
2024/03/30 17:44:01;;;;;;;9.05;1.40;;;;;;;;;;6259373;28;20024;-77
2024/03/30 17:47:01;;;;;;;5.83;1.23;;;;;;;;;;6272585;28;20052;-78
2024/03/30 17:50:02;;;;;;;4.55;1.25;;;;;;;;;;6245533;28;20422;-76
2024/03/30 17:53:02;;;;;;;4.68;1.10;;;;;;;;;;6246603;28;20022;-76
2024/03/30 17:56:03;;;;;;;8.90;1.13;;;;;;;;;;6246700;28;20437;-78
2024/03/30 17:59:06;;;;;;;7.30;1.42;;;;;;;;;;6262051;28;20029;-77
2024/03/30 18:02:06;;;;;;;6.63;1.23;;;;;;;;;;6250186;28;20032;-78
2024/03/30 18:05:06;;;;;;;5.97;1.00;;;;;;;;;;6233167;28;20108;-80
2024/03/30 18:08:06;;;;;;;9.37;1.50;;;;;;;;;;6241217;28;20354;-77
2024/03/30 18:11:07;;;;;;;4.07;1.40;;;;;;;;;;6231590;28;20332;-78
2024/03/30 18:14:07;;;;;;;5.40;1.10;;;;;;;;;;6254286;28;20304;-78